rapidleech neatblue

193 Plugins

Enlace a transferir:
 

Referrer:
 

 Usuario & Contraseña (HTTP/FTP)
 Agregar Comentario
 
Opciones de Plugin:
Opciones:
 Usar configuracion de Proxy  
 Usar Cuenta Premium  
 Guardar en  
 Guardar Opciones  
Marcar Todos | Desmarcar Todos | Invertir Selecion | Coincidir texto | Mostrar­

  Nombre Tamaño Comentarios Fecha
%E8%A5%BF%E6%B8%B8%E8%AE%B0%E7%BC%A9%E7%BC%96%E7%89%8801-%E7%8C%B4%E7%8E%8B%E5%88%9D%E9%97%AE%E4%B8%96%EF%BC%881986%E7%89%88%EF%BC%89.ts 103.87 MB 23.08.2017 05:00:01
1503472165_170301FHD_juy-097.mp4 1.20 GB 23.08.2017 11:09:53
2051.mp4 35.44 MB 23.08.2017 03:48:56
2052.mp4 76.22 MB 23.08.2017 03:50:08
20957757_120913018561751_6955882978220179456_n.mp4 40.57 MB 23.08.2017 09:34:23
3D-Models-Pack-April-1-2017.part1.rar 2.26 KB 23.08.2017 10:55:16
A6cJivwS3SmTG 22.96 KB 23.08.2017 05:09:56
A_World_Without_Thieves_2004 1.16 GB 23.08.2017 03:39:48
All.Eyez.on.Me.2017.720p.BrRip.2CH.x265.HEVC-PSA.mkv 906.18 MB 23.08.2017 10:13:02
All.Eyez.on.Me.2017.BrRip.x265.HEVC-PSA by HDTC.part01.rar 69.00 MB 23.08.2017 10:15:14
All.Eyez.on.Me.2017.BrRip.x265.HEVC-PSA by HDTC.part02.rar 69.00 MB 23.08.2017 10:15:21
All.Eyez.on.Me.2017.BrRip.x265.HEVC-PSA by HDTC.part03.rar 69.00 MB 23.08.2017 10:15:17
All.Eyez.on.Me.2017.BrRip.x265.HEVC-PSA by HDTC.part04.rar 69.00 MB 23.08.2017 10:15:20
All.Eyez.on.Me.2017.BrRip.x265.HEVC-PSA by HDTC.part05.rar 69.00 MB 23.08.2017 10:15:15
All.Eyez.on.Me.2017.BrRip.x265.HEVC-PSA by HDTC.part06.rar 69.00 MB 23.08.2017 10:15:16
All.Eyez.on.Me.2017.BrRip.x265.HEVC-PSA by HDTC.part07.rar 69.00 MB 23.08.2017 10:15:18
All.Eyez.on.Me.2017.BrRip.x265.HEVC-PSA by HDTC.part08.rar 69.00 MB 23.08.2017 10:15:19
All.Eyez.on.Me.2017.BrRip.x265.HEVC-PSA by HDTC.part09.rar 69.00 MB 23.08.2017 10:15:23
All.Eyez.on.Me.2017.BrRip.x265.HEVC-PSA by HDTC.part10.rar 69.00 MB 23.08.2017 10:15:26
All.Eyez.on.Me.2017.BrRip.x265.HEVC-PSA by HDTC.part11.rar 69.00 MB 23.08.2017 10:15:24
All.Eyez.on.Me.2017.BrRip.x265.HEVC-PSA by HDTC.part12.rar 69.00 MB 23.08.2017 10:15:22
All.Eyez.on.Me.2017.BrRip.x265.HEVC-PSA by HDTC.part13.rar 69.00 MB 23.08.2017 10:15:27
All.Eyez.on.Me.2017.BrRip.x265.HEVC-PSA by HDTC.part14.rar 9.18 MB 23.08.2017 10:15:25
Aniy_Ijip002.mp4 57.53 MB 23.08.2017 06:30:03
Apktool-armv7_5.2.0.apk 49.43 MB 23.08.2017 08:50:09
CID-HughHunter-MattWylde-AshleyRyder.mp4 826.04 MB 23.08.2017 05:10:43
Cain_fucks_Joel.mp4 542.90 MB 23.08.2017 08:50:08
Cowell_and_Tyler_s_Dia_Cytology_and_Hemat_of_the_Dog_and_Cat,_4e.rar 28.26 MB 23.08.2017 10:50:01
1 314.41 MB 23.08.2017 06:56:17
DearSofia_ARoyalCollection_ALA_D_NongZEZA@CtHts.ISO.003 119.85 MB 23.08.2017 03:40:01
Eduardo_Picasso_fucks_Chucho_Martin.mp4 1.75 GB 23.08.2017 05:18:24
Family_Circle_September_2017_avxhm.se.pdf 28.83 MB 23.08.2017 05:20:01
House of the Disappeared 2017 CM by HDTC.part01.rar 69.00 MB 23.08.2017 10:45:44
House of the Disappeared 2017 CM by HDTC.part02.rar 69.00 MB 23.08.2017 10:45:45
House of the Disappeared 2017 CM by HDTC.part03.rar 69.00 MB 23.08.2017 10:45:46
House of the Disappeared 2017 CM by HDTC.part04.rar 69.00 MB 23.08.2017 10:45:47
House of the Disappeared 2017 CM by HDTC.part05.rar 69.00 MB 23.08.2017 10:45:48
House of the Disappeared 2017 CM by HDTC.part06.rar 69.00 MB 23.08.2017 10:45:49
House of the Disappeared 2017 CM by HDTC.part07.rar 69.00 MB 23.08.2017 10:45:50
House of the Disappeared 2017 CM by HDTC.part08.rar 69.00 MB 23.08.2017 10:45:51
House of the Disappeared 2017 CM by HDTC.part09.rar 69.00 MB 23.08.2017 10:45:52
House of the Disappeared 2017 CM by HDTC.part10.rar 69.00 MB 23.08.2017 10:45:53
House of the Disappeared 2017 CM by HDTC.part11.rar 61.18 MB 23.08.2017 10:45:54
IIO_-_Rapture.vob 194.27 MB 23.08.2017 05:40:36
Jake_Cook_and_Damien_Crosse_fuck_bareback.mp4 1.53 GB 23.08.2017 05:13:20
L80SFLACVOL1.rar 562.63 MB 23.08.2017 05:44:08
L80SFLACVOL2.rar 595.17 MB 23.08.2017 07:06:05
Lowriders.2016.720p.WEB-DL.2CH.x265.HEVC-PSA.mkv 585.98 MB 23.08.2017 10:17:10
Lowriders.2016.WEB-DL.x265.HEVC-PSA by HDTC.part01.rar 69.00 MB 23.08.2017 10:17:47
Lowriders.2016.WEB-DL.x265.HEVC-PSA by HDTC.part02.rar 69.00 MB 23.08.2017 10:17:48
Lowriders.2016.WEB-DL.x265.HEVC-PSA by HDTC.part03.rar 69.00 MB 23.08.2017 10:17:50
Lowriders.2016.WEB-DL.x265.HEVC-PSA by HDTC.part04.rar 69.00 MB 23.08.2017 10:17:51
Lowriders.2016.WEB-DL.x265.HEVC-PSA by HDTC.part05.rar 69.00 MB 23.08.2017 10:17:52
Lowriders.2016.WEB-DL.x265.HEVC-PSA by HDTC.part06.rar 69.00 MB 23.08.2017 10:17:53
Lowriders.2016.WEB-DL.x265.HEVC-PSA by HDTC.part07.rar 69.00 MB 23.08.2017 10:17:54
Lowriders.2016.WEB-DL.x265.HEVC-PSA by HDTC.part08.rar 69.00 MB 23.08.2017 10:17:49
Lowriders.2016.WEB-DL.x265.HEVC-PSA by HDTC.part09.rar 33.98 MB 23.08.2017 10:17:55
M.Th3.D3f3nd3rs.1x04.m720p.Latino.rar 435.87 MB 23.08.2017 09:09:44
MS-390.mp4 2.10 GB 23.08.2017 03:22:21
Me_voy_a_comer_el_mundo.1x14.Seul.m720p.mp4 255.56 MB 23.08.2017 06:10:01
My Cousin Rachel 2017 Bluray CM by HDTC.part01.rar 69.00 MB 23.08.2017 10:44:25
My Cousin Rachel 2017 Bluray CM by HDTC.part02.rar 69.00 MB 23.08.2017 10:44:28
My Cousin Rachel 2017 Bluray CM by HDTC.part03.rar 69.00 MB 23.08.2017 10:44:26
My Cousin Rachel 2017 Bluray CM by HDTC.part04.rar 69.00 MB 23.08.2017 10:44:29
My Cousin Rachel 2017 Bluray CM by HDTC.part05.rar 69.00 MB 23.08.2017 10:44:27
My Cousin Rachel 2017 Bluray CM by HDTC.part06.rar 69.00 MB 23.08.2017 10:44:30
My Cousin Rachel 2017 Bluray CM by HDTC.part07.rar 69.00 MB 23.08.2017 10:44:31
My Cousin Rachel 2017 Bluray CM by HDTC.part08.rar 69.00 MB 23.08.2017 10:44:32
My Cousin Rachel 2017 Bluray CM by HDTC.part09.rar 69.00 MB 23.08.2017 10:44:33
My Cousin Rachel 2017 Bluray CM by HDTC.part10.rar 69.00 MB 23.08.2017 10:44:34
My Cousin Rachel 2017 Bluray CM by HDTC.part11.rar 69.00 MB 23.08.2017 10:44:35
My Cousin Rachel 2017 Bluray CM by HDTC.part12.rar 22.27 MB 23.08.2017 10:44:36
New_Philosopher_August_2017.pdf 26.89 MB 23.08.2017 04:19:43
One.Week.Friends.2017 CM by HDTC.part01.rar 69.00 MB 23.08.2017 10:39:31
One.Week.Friends.2017 CM by HDTC.part02.rar 69.00 MB 23.08.2017 10:39:33
One.Week.Friends.2017 CM by HDTC.part03.rar 69.00 MB 23.08.2017 10:39:32
One.Week.Friends.2017 CM by HDTC.part04.rar 69.00 MB 23.08.2017 10:39:34
One.Week.Friends.2017 CM by HDTC.part05.rar 69.00 MB 23.08.2017 10:39:35
One.Week.Friends.2017 CM by HDTC.part06.rar 69.00 MB 23.08.2017 10:39:37
One.Week.Friends.2017 CM by HDTC.part07.rar 69.00 MB 23.08.2017 10:39:36
One.Week.Friends.2017 CM by HDTC.part08.rar 69.00 MB 23.08.2017 10:39:38
One.Week.Friends.2017 CM by HDTC.part09.rar 69.00 MB 23.08.2017 10:39:39
One.Week.Friends.2017 CM by HDTC.part10.rar 69.00 MB 23.08.2017 10:39:42
One.Week.Friends.2017 CM by HDTC.part11.rar 69.00 MB 23.08.2017 10:39:40
One.Week.Friends.2017 CM by HDTC.part12.rar 69.00 MB 23.08.2017 10:39:43
One.Week.Friends.2017 CM by HDTC.part13.rar 34.58 MB 23.08.2017 10:39:41
One.Week.Friends.2017.720p.BluRay.x264-WiKi-muxed_CM.mp4 862.58 MB 23.08.2017 10:38:59
PelisLatino3gp.Net.M4v3l_Ag3nt_sh13ls_S304_.mp4 118.73 MB 23.08.2017 06:08:38
PelisLatino3gp.Net.M4v3l_Ag3nt_sh13ls_S306_.mp4 116.49 MB 23.08.2017 06:18:22
PelisLatino3gp.Net.M4v3l_Ag3nt_sh13ls_S308_.mp4 92.98 MB 23.08.2017 09:10:10
PicsArt_Photo_Studio_&_Collage.apk 54.63 MB 23.08.2017 08:57:44
RDW.001 1000.00 MB 23.08.2017 04:29:41
RDW.002 1000.00 MB 23.08.2017 04:26:19
Rangefinder_0708_2017.pdf 17.58 MB 23.08.2017 04:19:55
TKL_23.mp4 121.49 MB 23.08.2017 06:41:49
TKL_24.mp4 117.25 MB 23.08.2017 06:42:20
Teen.Wolf.S06E14.Face.to.Faceless.720p.WEBRip.2CH.x265.HEVC-PSA.mkv 193.06 MB 23.08.2017 10:21:24
Teen.Wolf.S06E15.Pressure.Test.720p.WEBRip.2CH.x265.HEVC-PSA.mkv 196.18 MB 23.08.2017 10:23:34
Temple_Grandin_s_Guide_to_Working_with_Farm_Animals_-_Safe,_Humane_Livestock_Handling_Practices_for_the_Small_Farm.pdf 33.71 MB 23.08.2017 03:15:17
The_New_Yorker_August_28_2017.pdf 16.69 MB 23.08.2017 04:18:20
Tom_Bentley_Cameron_Cyle_-_Wet_Wake-Up_FHD.part2.rar 511.57 MB 23.08.2017 05:54:15
Topher_Michels_and_Geoff_Gregorio.mp4 538.28 MB 23.08.2017 08:13:55
Van_Busts_A_Nut.mp4 682.09 MB 23.08.2017 08:30:14
Van_Busts_A_Nut_FHD.mp4 1002.74 MB 23.08.2017 08:32:02
Vengaboys_-_Boom_Boom_Boom_Boom.vob 143.43 MB 23.08.2017 05:38:47
Vengaboys_-_We'Re_Going_To_Ibiza_.Vob 234.02 MB 23.08.2017 05:39:44
WWE.205.Live.mp4 255.82 MB 23.08.2017 03:40:13
What Happened to Monday 2017 Webrip CM by HDTC.part01.rar 69.00 MB 23.08.2017 10:43:00
What Happened to Monday 2017 Webrip CM by HDTC.part02.rar 69.00 MB 23.08.2017 10:42:53
What Happened to Monday 2017 Webrip CM by HDTC.part03.rar 69.00 MB 23.08.2017 10:42:54
What Happened to Monday 2017 Webrip CM by HDTC.part04.rar 69.00 MB 23.08.2017 10:43:01
What Happened to Monday 2017 Webrip CM by HDTC.part05.rar 69.00 MB 23.08.2017 10:42:55
What Happened to Monday 2017 Webrip CM by HDTC.part06.rar 69.00 MB 23.08.2017 10:43:02
What Happened to Monday 2017 Webrip CM by HDTC.part07.rar 69.00 MB 23.08.2017 10:42:56
What Happened to Monday 2017 Webrip CM by HDTC.part08.rar 69.00 MB 23.08.2017 10:43:03
What Happened to Monday 2017 Webrip CM by HDTC.part09.rar 69.00 MB 23.08.2017 10:42:57
What Happened to Monday 2017 Webrip CM by HDTC.part10.rar 69.00 MB 23.08.2017 10:43:04
What Happened to Monday 2017 Webrip CM by HDTC.part11.rar 69.00 MB 23.08.2017 10:42:58
What Happened to Monday 2017 Webrip CM by HDTC.part12.rar 69.00 MB 23.08.2017 10:43:05
What Happened to Monday 2017 Webrip CM by HDTC.part13.rar 3.17 MB 23.08.2017 10:42:59
Wired_USA-September_2017.pdf 28.43 MB 23.08.2017 04:32:21
World4uFRee.cc_2JtJlt72Pun.mkv 679.49 MB 23.08.2017 04:00:01
[CM]_House_of_the_Disappeared_(2017)_Largefile.mp4 751.18 MB 23.08.2017 10:44:48
[CM]_My_Cousin_Rachel_(2017)_Bluray720p_Largefile.mp4 781.27 MB 23.08.2017 10:43:41
[CM]_What_Happened_to_Monday_(2017)_Webrip720p_Largefile.mp4 831.17 MB 23.08.2017 10:42:07
[DarkFlames]_18_-_Zipang_[DualAudio-576p].mkv 74.37 MB 23.08.2017 05:16:10
[DarkFlames]_19_-_Zipang_[DualAudio-576p].mkv 61.14 MB 23.08.2017 05:17:13
[HorribleSubs] Nana Maru San Batsu - 08 [1080p].mkv 525.99 MB 23.08.2017 04:16:21
[Leopard-Raws]_Nanamaru_Sanbatsu_-_08_RAW_(NTV_1280x720_x264_AAC).mp4 286.47 MB 23.08.2017 11:19:01
[Ohys-Raws]_Netsuzou_Trap_NTR_-_08_(AT-X_1280x720_x264_AAC).mp4 114.01 MB 23.08.2017 07:55:40
[sHentaiESP.asia]_Aneimo_Square_Sisters_-_01.mp4 101.76 MB 23.08.2017 06:53:11
[sHentaiESP.asia]_Aneimo_Square_Sisters_-_02.mp4 111.30 MB 23.08.2017 07:03:19
abufmind72ray.Ganool.com.mkv 900.49 MB 23.08.2017 05:33:06
asnadword72ray.Ganool.com.mkv 649.77 MB 23.08.2017 05:27:28
boruto_21.mp4 197.79 MB 23.08.2017 09:30:11
d2lv02af.exe 480.21 MB 23.08.2017 06:41:07
m.mkv 425.00 MB 23.08.2017 05:29:36
m.mkv 70.00 MB 23.08.2017 05:29:35
[Ohys-Raws]_Youkoso_Jitsuryoku_Shijou_Shugi_no_Kyoushitsu_e_-_07_(AT-X_1280x720_x264_AAC).mp4 293.78 MB 23.08.2017 11:31:08
Wank_Party_Wank_Party_87_Part_1_RAW_-_WANK_PARTY.mp4 510.92 MB 23.08.2017 11:46:33
Teen.Wolf.S06E14 15 x265.HEVC-PSA by HDTC.part1.rar 90.00 MB 23.08.2017 11:58:12
Teen.Wolf.S06E14 15 x265.HEVC-PSA by HDTC.part2.rar 90.00 MB 23.08.2017 11:58:13
Teen.Wolf.S06E14 15 x265.HEVC-PSA by HDTC.part5.rar 29.24 MB 23.08.2017 11:58:14
Teen.Wolf.S06E14 15 x265.HEVC-PSA by HDTC.part4.rar 90.00 MB 23.08.2017 11:58:15
Teen.Wolf.S06E14 15 x265.HEVC-PSA by HDTC.part3.rar 90.00 MB 23.08.2017 11:58:16
[Ohys-Raws]_Hajimete_no_Gal_-_07_(AT-X_1280x720_x264_AAC).mp4 316.30 MB 23.08.2017 12:00:49
[Ohys-Raws]_Sagrada_Reset_-_21_(MX_1280x720_x264_AAC).mp4 229.30 MB 23.08.2017 12:00:58
[Ohys-Raws]_Saiyuuki_Reload_Blast_-_08_(AT-X_1280x720_x264_AAC).mp4 369.03 MB 23.08.2017 12:06:42
GFDC-03-652016.rar 148.61 MB 23.08.2017 12:17:43
[Ohys-Raws]_Sakura_Quest_-_21_(AT-X_1280x720_x264_AAC).mp4 239.13 MB 23.08.2017 12:51:49
analisis_factores3.pdf 1.41 GB 23.08.2017 12:56:53
DIY baby booties crochet for beginners Vasilisa.mp4 314.41 MB 23.08.2017 13:11:16
splitbd50.part48.rar 900.00 MB 23.08.2017 13:17:15
splitbd50.part47.rar 900.00 MB 23.08.2017 13:38:14
splitbd50.part46.rar 900.00 MB 23.08.2017 13:38:57
splitbd50.part45.rar 900.00 MB 23.08.2017 13:41:01
splitbd50.part44.rar 900.00 MB 23.08.2017 13:41:27
[DarkFlames]_23_-_Zipang_[DualAudio-576p].mkv 74.24 MB 23.08.2017 14:05:05
[DarkFlames]_24_-_Zipang_[DualAudio-576p].mkv 81.27 MB 23.08.2017 14:05:55
[DarkFlames]_25_-_Zipang_[DualAudio-576p].mkv 58.86 MB 23.08.2017 14:06:34
[DarkFlames]_26_-_Zipang_[DualAudio-576p].mkv 74.51 MB 23.08.2017 14:07:39
setup-5.bin 1.96 GB 23.08.2017 14:23:31
[DarkFlames]_01_-_Are_You_Kyousuke.mkv 61.84 MB 23.08.2017 14:35:48
[DarkFlames]_02_-_Thank_you..._Coach!.mkv 56.05 MB 23.08.2017 14:36:37
[DarkFlames]_03_-_I`m_Not_Gonna_Lose!.mkv 65.52 MB 23.08.2017 14:37:39
[DarkFlames]_04_-_Me_What_Defender.mkv 53.13 MB 23.08.2017 14:38:31
[DarkFlames]_05_-_Running_Away.mkv 52.18 MB 23.08.2017 14:39:44
[DarkFlames]_07_-_Don`t_underestimate_Soccer!.mkv 50.58 MB 23.08.2017 14:40:42
r060c0pz.part1.rar 499.00 MB 23.08.2017 14:51:40
NataHazlo.mp4 2.62 GB 23.08.2017 15:08:44
  Total: 45.93 GB    
Funciona con
2shared.com | 4shared.com | ADrive.com | Badongo.com | Bitshare.com | Crocko.com | Depositfiles.com | Enterupload.com | Filefactory.com | Hotfile.com | Letitbit.net | Mediafire.com | Netload.in | Oron.com | Rapidshare.com | Share-Online.biz | Shareflare.net | Turbobit.net | UploadStation.com | Uploaded.to | Uploading.com | ZShare.net
Elimina
Anonym.to | Linkbucks.com | Lix.in
Rapidshare.com Folders | Usercash.com




Solamente Mostrar Enlaces: Solamente Eliminar Enlaces:

Lix Checker v3.0.0 | Copyright Dman - MaxW.org | Optimized by zpikdum and sarkar
Mod by eqbal | Ajax'd by TheOnly92 | Updated by Th3-822

 

Auto - Borrado: 12 Horas Después de la Transferencia

En Uso:2.73 TB / 3.71 TB

Carga de CPU: 11%


RapidLeech PlugMod (eqbal) rev. 43 Development Stage
Credits to Pramode & Checkmate & Kloon